Time;durP1;ratioP1;P1;durP2;ratioP2;P2;SDS_P1;SDS_P2;PMS_P1;PMS_P2;Temp;Humidity;BMP_temperature;BMP_pressure;BME280_temperature;BME280_humidity;BME280_pressure;Samples;Min_cycle;Max_cycle;Signal;HPM_P1;HPM_P2
2022/03/17 00:03:05;;;;;;;135.10;64.10;;;;;;;4.82;75.99;100582.16;8426952;28;20493;-67
2022/03/17 00:07:07;;;;;;;137.15;62.70;;;;;;;4.80;75.48;100584.28;8474223;27;20182;-68
2022/03/17 00:11:08;;;;;;;138.93;63.65;;;;;;;4.74;75.28;100590.56;8463111;27;20044;-68
2022/03/17 00:15:09;;;;;;;148.20;64.53;;;;;;;4.77;74.81;100584.72;8461129;27;20105;-68
2022/03/17 00:19:10;;;;;;;133.25;61.80;;;;;;;4.69;74.95;100588.59;8454688;27;20147;-69
2022/03/17 00:23:11;;;;;;;142.43;63.65;;;;;;;4.61;75.14;100587.06;8477558;27;20126;-69
2022/03/17 00:27:12;;;;;;;139.38;62.50;;;;;;;4.56;74.85;100589.63;8443385;28;20150;-68
2022/03/17 00:31:16;;;;;;;130.82;59.08;;;;;;;4.55;74.37;100593.34;8461777;27;20424;-68
2022/03/17 00:35:35;;;;;;;130.55;58.85;;;;;;;4.48;74.20;100595.34;8448209;27;20380;-68
2022/03/17 00:39:36;;;;;;;;;;;;;;;4.43;74.19;100600.59;8405937;27;20047;-68
2022/03/17 00:43:37;;;;;;;114.65;53.95;;;;;;;4.36;73.85;100583.81;8457062;27;20007;-68
2022/03/17 00:47:38;;;;;;;125.60;54.35;;;;;;;4.31;73.76;100575.69;8448083;27;20052;-67
2022/03/17 00:51:40;;;;;;;124.43;54.78;;;;;;;4.24;73.58;100581.13;8460044;27;20047;-67
2022/03/17 00:55:41;;;;;;;111.95;52.78;;;;;;;4.25;72.96;100593.47;8460943;27;20052;-67
2022/03/17 00:59:42;;;;;;;118.93;52.88;;;;;;;4.26;72.41;100578.22;8450394;27;20562;-68
2022/03/17 01:03:44;;;;;;;113.15;51.00;;;;;;;4.25;72.18;100571.25;8487100;27;20061;-68
2022/03/17 01:07:45;;;;;;;115.22;50.60;;;;;;;4.19;72.24;100588.22;8445275;27;20047;-68
2022/03/17 01:11:46;;;;;;;115.93;50.17;;;;;;;4.11;72.21;100591.25;8454432;28;20054;-68
2022/03/17 01:15:47;;;;;;;108.72;49.17;;;;;;;4.05;72.37;100592.97;8465865;27;20047;-68
2022/03/17 01:19:48;;;;;;;106.13;46.63;;;;;;;4.00;72.16;100594.69;8479110;27;20517;-68
2022/03/17 01:23:49;;;;;;;96.40;45.45;;;;;;;4.00;71.84;100589.34;8460009;28;20055;-69
2022/03/17 01:27:50;;;;;;;98.25;43.20;;;;;;;4.03;71.40;100595.06;8457826;28;20047;-68
2022/03/17 01:31:51;;;;;;;101.68;42.95;;;;;;;4.10;70.87;100586.94;8464947;27;20500;-68
2022/03/17 01:35:52;;;;;;;97.68;42.38;;;;;;;4.16;70.37;100588.69;8453175;27;20048;-68
2022/03/17 01:39:54;;;;;;;97.90;44.13;;;;;;;4.21;70.03;100586.13;8489711;27;20403;-69
2022/03/17 01:43:55;;;;;;;105.57;45.65;;;;;;;4.26;69.53;100583.59;8441289;27;20049;-68
2022/03/17 01:47:56;;;;;;;104.93;46.42;;;;;;;4.27;69.67;100585.22;8459500;27;20048;-67
2022/03/17 01:51:58;;;;;;;108.03;48.53;;;;;;;4.23;69.75;100578.69;8459197;27;20047;-67
2022/03/17 01:55:59;;;;;;;107.40;46.40;;;;;;;4.18;69.87;100559.84;8479516;27;20044;-67
2022/03/17 02:00:02;;;;;;;115.75;50.38;;;;;;;4.21;70.11;100554.06;8454800;27;20040;-69
2022/03/17 02:04:03;;;;;;;116.18;49.67;;;;;;;4.27;70.10;100537.09;8432758;28;20044;-68
2022/03/17 02:08:09;;;;;;;114.15;48.78;;;;;;;4.31;69.99;100516.03;8468662;27;20047;-69
2022/03/17 02:16:30;;;;;;;121.50;53.85;;;;;;;4.26;69.96;100508.72;8457904;27;20040;-68
2022/03/17 02:20:32;;;;;;;125.00;53.67;;;;;;;4.28;70.00;100501.28;8459448;27;20083;-69
2022/03/17 02:28:53;;;;;;;;;;;;;;;4.10;70.53;100504.06;8464470;27;20059;-67
2022/03/17 02:33:02;;;;;;;118.18;53.33;;;;;;;4.00;70.68;100514.50;8455213;27;20268;-68
2022/03/17 02:37:04;;;;;;;124.10;52.95;;;;;;;3.94;70.82;100520.78;8469563;27;20510;-69
2022/03/17 02:41:05;;;;;;;132.25;56.42;;;;;;;3.89;71.13;100539.38;8471707;27;20079;-67
2022/03/17 02:45:07;;;;;;;142.55;60.17;;;;;;;3.78;71.18;100539.13;8444605;27;20039;-68
2022/03/17 02:49:08;;;;;;;129.60;57.47;;;;;;;3.64;71.78;100543.03;8449947;27;20044;-68
2022/03/17 02:53:10;;;;;;;138.07;59.45;;;;;;;3.52;72.31;100554.72;8461968;27;20066;-69
2022/03/17 02:57:11;;;;;;;146.25;60.80;;;;;;;3.40;72.95;100560.00;8487665;27;20046;-68
2022/03/17 03:01:12;;;;;;;134.63;59.97;;;;;;;3.27;73.22;100568.22;8454679;27;20044;-69
2022/03/17 03:05:13;;;;;;;141.65;62.08;;;;;;;3.13;73.69;100578.22;8457940;27;20052;-67
2022/03/17 03:09:14;;;;;;;144.52;63.80;;;;;;;3.03;74.40;100577.13;8474212;27;20043;-68
2022/03/17 03:13:15;;;;;;;147.38;62.83;;;;;;;2.92;74.53;100587.50;8480002;27;20077;-68
2022/03/17 03:17:16;;;;;;;142.90;63.00;;;;;;;2.88;75.15;100602.34;8445878;27;20096;-68
2022/03/17 03:21:17;;;;;;;150.25;63.95;;;;;;;2.81;75.68;100598.91;8468124;27;20518;-69
2022/03/17 03:25:18;;;;;;;159.13;65.13;;;;;;;2.76;75.83;100609.44;8457377;27;20047;-67
2022/03/17 03:29:28;;;;;;;152.77;63.88;;;;;;;2.69;75.67;100608.72;8469330;27;20055;-67
2022/03/17 03:33:29;;;;;;;157.20;64.00;;;;;;;2.61;75.81;100611.66;8484827;27;20121;-67
2022/03/17 03:37:30;;;;;;;157.68;68.03;;;;;;;2.53;76.81;100609.28;8449146;27;20039;-68
2022/03/17 03:41:31;;;;;;;146.55;66.60;;;;;;;2.44;77.68;100627.38;8467551;27;20578;-69
2022/03/17 03:45:32;;;;;;;151.88;67.07;;;;;;;2.40;77.88;100628.03;8463831;27;20187;-68
2022/03/17 03:49:34;;;;;;;152.52;65.63;;;;;;;2.35;78.08;100625.22;8465287;27;20040;-68
2022/03/17 03:57:54;;;;;;;158.63;68.70;;;;;;;2.31;77.55;100626.69;8471727;27;20051;-67
2022/03/17 04:02:01;;;;;;;158.73;68.35;;;;;;;2.28;77.73;100637.78;8454886;27;20051;-67
2022/03/17 04:06:02;;;;;;;156.77;69.30;;;;;;;2.28;77.38;100638.59;8433835;27;20059;-67
2022/03/17 04:10:04;;;;;;;160.52;69.75;;;;;;;2.33;77.88;100624.59;8469390;27;20035;-67
2022/03/17 04:14:05;;;;;;;154.82;67.15;;;;;;;2.39;78.00;100634.41;8450655;27;20126;-67
2022/03/17 04:18:06;;;;;;;162.68;67.30;;;;;;;2.43;77.62;100635.63;8451650;27;20036;-68
2022/03/17 04:22:07;;;;;;;161.07;64.82;;;;;;;2.44;77.83;100637.22;8458437;27;20069;-69
2022/03/17 04:26:09;;;;;;;168.93;67.03;;;;;;;2.39;77.59;100639.75;8464366;27;20066;-67
2022/03/17 04:30:10;;;;;;;154.65;66.22;;;;;;;2.47;77.45;100642.16;8468874;27;20047;-68
2022/03/17 04:34:11;;;;;;;169.90;68.93;;;;;;;2.48;77.27;100651.78;8417217;27;20624;-67
2022/03/17 04:38:12;;;;;;;152.07;67.65;;;;;;;2.44;77.20;100653.22;8449353;27;20051;-67
2022/03/17 04:42:14;;;;;;;161.80;67.72;;;;;;;2.44;77.28;100663.91;8453923;27;20046;-67
2022/03/17 04:46:15;;;;;;;157.45;68.38;;;;;;;2.47;77.17;100666.97;8456179;27;20123;-69
2022/03/17 04:50:16;;;;;;;150.80;67.70;;;;;;;2.50;77.17;100671.03;8459885;27;20044;-67
2022/03/17 04:54:17;;;;;;;162.73;66.78;;;;;;;2.54;77.21;100685.56;8463209;27;20059;-67
2022/03/17 04:58:18;;;;;;;156.88;67.65;;;;;;;2.51;77.20;100680.66;8463926;27;20043;-67
2022/03/17 05:02:19;;;;;;;167.20;66.40;;;;;;;2.62;76.84;100671.97;8466595;27;20065;-69
2022/03/17 05:06:20;;;;;;;153.10;65.35;;;;;;;2.58;76.57;100678.78;8469009;27;20055;-67
2022/03/17 05:10:21;;;;;;;152.27;66.43;;;;;;;2.62;76.65;100687.97;8480679;27;20554;-67
2022/03/17 05:14:22;;;;;;;160.75;64.78;;;;;;;2.70;76.47;100695.69;8488232;27;20562;-68
2022/03/17 05:18:23;;;;;;;148.32;61.88;;;;;;;2.85;75.71;100688.19;8461975;28;20043;-68
2022/03/17 05:22:25;;;;;;;152.57;63.00;;;;;;;2.98;75.37;100692.56;8442036;28;20047;-67
2022/03/17 05:26:26;;;;;;;137.02;58.95;;;;;;;3.14;74.94;100707.19;8442767;28;20063;-68
2022/03/17 05:30:28;;;;;;;140.60;60.17;;;;;;;3.26;74.31;100705.41;8452529;28;20051;-69
2022/03/17 05:34:29;;;;;;;141.10;60.35;;;;;;;3.36;73.80;100716.41;8437766;28;20061;-68
2022/03/17 05:38:30;;;;;;;137.18;59.60;;;;;;;3.45;73.09;100720.38;8470459;27;20065;-69
2022/03/17 05:42:31;;;;;;;139.38;59.33;;;;;;;3.50;73.34;100720.53;8440318;27;20503;-69
2022/03/17 05:46:32;;;;;;;143.57;61.03;;;;;;;3.53;73.07;100733.47;8436654;28;20056;-68
2022/03/17 05:50:37;;;;;;;131.90;57.47;;;;;;;3.64;72.46;100735.41;8442433;28;20069;-68
2022/03/17 05:54:41;;;;;;;130.82;57.78;;;;;;;3.76;72.32;100738.94;8436601;28;20071;-68
2022/03/17 05:58:42;;;;;;;133.10;54.95;;;;;;;3.86;72.09;100733.03;8444234;28;20127;-68
2022/03/17 06:02:44;;;;;;;160.48;65.20;;;;;;;3.96;71.56;100743.22;8441236;28;20560;-71
2022/03/17 06:06:45;;;;;;;154.25;62.20;;;;;;;4.13;71.24;100752.22;8479166;28;20058;-69
2022/03/17 06:10:46;;;;;;;142.23;59.67;;;;;;;4.29;70.46;100743.56;8466501;27;20044;-70
2022/03/17 06:14:47;;;;;;;134.05;59.78;;;;;;;4.48;69.78;100758.53;8460315;27;20134;-70
2022/03/17 06:18:49;;;;;;;137.63;59.17;;;;;;;4.62;69.22;100765.31;8468557;27;20059;-67
2022/03/17 06:22:51;;;;;;;147.32;62.00;;;;;;;4.81;68.75;100767.91;8432411;27;20054;-68
2022/03/17 06:26:53;;;;;;;138.45;60.47;;;;;;;4.86;68.65;100776.06;8467996;27;20415;-71
2022/03/17 06:30:54;;;;;;;137.85;61.53;;;;;;;4.97;68.00;100784.09;8479229;27;20138;-68
2022/03/17 06:34:55;;;;;;;134.43;61.70;;;;;;;5.04;68.11;100794.69;8448341;27;20138;-69
2022/03/17 06:38:56;;;;;;;147.70;60.28;;;;;;;5.11;67.72;100800.78;8475293;27;20448;-68
2022/03/17 06:42:57;;;;;;;137.32;60.92;;;;;;;5.27;67.26;100810.81;8474952;27;20122;-68
2022/03/17 06:46:58;;;;;;;146.82;63.08;;;;;;;5.43;66.88;100804.75;8426882;28;20069;-68
2022/03/17 06:51:00;;;;;;;135.70;61.17;;;;;;;5.35;67.11;100802.41;8426497;28;20040;-68
2022/03/17 06:55:01;;;;;;;143.02;63.85;;;;;;;5.46;67.17;100793.56;8425681;28;20052;-68
2022/03/17 06:59:03;;;;;;;144.75;66.05;;;;;;;5.55;66.77;100806.63;8429527;28;20140;-67
2022/03/17 07:03:03;;;;;;;139.40;61.47;;;;;;;5.66;66.55;100811.16;8439091;28;20226;-67
2022/03/17 07:07:05;;;;;;;138.82;61.97;;;;;;;5.67;66.04;100804.72;8442072;28;20043;-67
2022/03/17 07:11:06;;;;;;;137.65;61.03;;;;;;;5.67;66.36;100810.91;8452094;28;20082;-67
2022/03/17 07:15:08;;;;;;;141.15;61.35;;;;;;;5.84;66.05;100811.00;8430606;28;20048;-68
2022/03/17 07:19:09;;;;;;;135.88;60.22;;;;;;;5.78;66.25;100812.75;8474633;27;20518;-67
2022/03/17 07:23:10;;;;;;;132.25;59.95;;;;;;;5.83;66.33;100817.41;8477801;27;20513;-68
2022/03/17 07:27:11;;;;;;;145.55;68.53;;;;;;;5.99;65.70;100808.66;8495772;27;20063;-68
2022/03/17 07:31:12;;;;;;;129.98;59.63;;;;;;;6.12;65.27;100813.75;8497013;27;20120;-68
2022/03/17 07:35:12;;;;;;;124.75;58.83;;;;;;;6.19;65.36;100803.69;8475746;27;20047;-69
2022/03/17 07:39:14;;;;;;;125.20;60.47;;;;;;;6.32;65.59;100808.78;8471504;27;20039;-68
2022/03/17 07:43:14;;;;;;;136.27;62.58;;;;;;;6.41;64.95;100808.41;8466324;27;20051;-68
2022/03/17 07:47:15;;;;;;;132.30;60.17;;;;;;;6.39;64.70;100815.88;8492525;27;20043;-69
2022/03/17 07:51:16;;;;;;;135.60;61.20;;;;;;;6.51;64.58;100811.25;8488079;27;20523;-69
2022/03/17 07:55:18;;;;;;;147.50;67.25;;;;;;;6.67;64.29;100810.50;8462475;28;20479;-68
2022/03/17 07:59:20;;;;;;;139.55;64.05;;;;;;;6.81;63.51;100811.84;8462324;28;20498;-70
2022/03/17 08:03:21;;;;;;;144.30;64.50;;;;;;;6.85;63.10;100818.34;8442879;28;20044;-69
2022/03/17 08:07:22;;;;;;;138.20;65.22;;;;;;;6.95;63.15;100818.50;8462803;28;20074;-70
2022/03/17 08:11:23;;;;;;;138.55;63.90;;;;;;;6.91;63.76;100816.56;8462565;28;20067;-69
2022/03/17 08:15:26;;;;;;;146.18;65.32;;;;;;;6.99;63.21;100825.03;8442563;28;20052;-69
2022/03/17 08:19:28;;;;;;;143.73;68.65;;;;;;;6.97;63.03;100827.16;8461452;27;20183;-68
2022/03/17 08:23:29;;;;;;;138.27;63.15;;;;;;;7.10;62.49;100826.81;8462077;27;20136;-67
2022/03/17 08:27:30;;;;;;;137.57;63.00;;;;;;;7.35;61.67;100828.31;8468368;27;20051;-67
2022/03/17 08:31:32;;;;;;;155.57;71.22;;;;;;;7.42;61.65;100834.28;8476075;27;20550;-69
2022/03/17 08:35:33;;;;;;;139.82;64.28;;;;;;;7.57;60.79;100837.22;8495402;27;20047;-68
2022/03/17 08:39:33;;;;;;;143.07;63.40;;;;;;;7.71;60.34;100825.06;8471530;27;20122;-67
2022/03/17 08:43:34;;;;;;;142.40;64.30;;;;;;;7.81;60.19;100827.88;8427873;27;20467;-68
2022/03/17 08:51:57;;;;;;;142.38;65.97;;;;;;;7.95;59.87;100837.22;8459565;28;20506;-69
2022/03/17 08:55:58;;;;;;;142.05;64.68;;;;;;;8.10;59.29;100830.38;8459985;28;20131;-68
2022/03/17 09:00:05;;;;;;;132.10;61.50;;;;;;;8.06;59.33;100828.22;8460816;28;20112;-72
2022/03/17 09:04:06;;;;;;;129.05;56.50;;;;;;;8.26;57.53;100834.91;8456058;28;20475;-69
2022/03/17 09:08:08;;;;;;;110.20;51.35;;;;;;;8.42;55.70;100839.41;8441302;28;20050;-67
2022/03/17 09:12:09;;;;;;;107.75;50.58;;;;;;;8.68;54.28;100829.72;8441094;27;20496;-69
2022/03/17 09:16:11;;;;;;;101.88;47.70;;;;;;;8.84;53.51;100832.31;8426648;28;20052;-68
2022/03/17 09:20:15;;;;;;;102.35;46.92;;;;;;;9.03;53.63;100826.56;8424453;28;20081;-68
2022/03/17 09:24:16;;;;;;;92.32;44.67;;;;;;;9.06;52.90;100831.44;8426422;28;20067;-69
2022/03/17 09:28:17;;;;;;;81.88;41.83;;;;;;;9.10;51.64;100836.06;8445368;28;20403;-68
2022/03/17 09:32:20;;;;;;;90.72;43.42;;;;;;;9.15;52.56;100843.38;8460124;28;20047;-69
2022/03/17 09:36:21;;;;;;;82.45;42.17;;;;;;;9.10;51.96;100840.63;8460265;28;20135;-68
2022/03/17 09:40:22;;;;;;;79.85;39.40;;;;;;;9.11;50.00;100842.25;8440971;28;20418;-68
2022/03/17 09:44:22;;;;;;;71.78;35.78;;;;;;;9.23;48.03;100840.22;8459635;28;20055;-68
2022/03/17 09:48:25;;;;;;;68.53;33.80;;;;;;;9.46;47.04;100839.88;8424064;28;20121;-68
2022/03/17 09:52:31;;;;;;;65.65;32.65;;;;;;;9.62;47.21;100844.25;8460004;28;20518;-69
2022/03/17 09:56:32;;;;;;;67.57;33.30;;;;;;;9.67;45.70;100849.72;8465547;28;20044;-67
2022/03/17 10:00:50;;;;;;;66.95;34.42;;;;;;;9.56;45.38;100845.31;8465961;28;20491;-68
2022/03/17 10:04:52;;;;;;;69.97;34.15;;;;;;;9.71;45.06;100853.50;8435167;28;20403;-68
2022/03/17 10:08:54;;;;;;;70.00;33.63;;;;;;;9.63;45.28;100845.06;8466300;28;20047;-68
2022/03/17 10:13:13;;;;;;;67.93;30.98;;;;;;;9.71;44.48;100842.72;8466003;28;20072;-68
2022/03/17 10:17:39;;;;;;;63.65;33.03;;;;;;;9.46;44.29;100845.25;8464854;28;20043;-69
2022/03/17 10:21:42;;;;;;;68.15;33.03;;;;;;;9.52;44.58;100849.59;8465828;28;20043;-67
2022/03/17 10:25:43;;;;;;;66.75;32.15;;;;;;;9.78;44.55;100852.47;8465237;28;20591;-68
2022/03/17 10:30:01;;;;;;;63.17;32.63;;;;;;;9.75;44.43;100854.59;8429580;28;20484;-69
2022/03/17 10:34:04;;;;;;;65.95;33.38;;;;;;;9.77;44.31;100850.84;8464891;28;20506;-68
2022/03/17 10:38:12;;;;;;;100.72;41.28;;;;;;;9.96;44.60;100846.63;8465088;28;20054;-67
2022/03/17 10:42:16;;;;;;;74.18;36.70;;;;;;;10.01;44.77;100852.03;8465200;28;20049;-69
2022/03/17 10:46:20;;;;;;;78.63;37.42;;;;;;;10.17;44.68;100853.78;8395823;28;20509;-68
2022/03/17 10:50:22;;;;;;;76.63;35.83;;;;;;;10.26;45.15;100854.88;8430323;28;20470;-68
2022/03/17 10:54:24;;;;;;;83.53;38.70;;;;;;;10.48;45.24;100842.00;8439795;28;20036;-69
2022/03/17 10:58:25;;;;;;;115.60;47.42;;;;;;;10.59;44.71;100848.25;8464269;28;20411;-69
2022/03/17 11:02:26;;;;;;;91.88;41.63;;;;;;;10.45;45.84;100847.94;8462218;28;20051;-67
2022/03/17 11:06:28;;;;;;;83.93;39.92;;;;;;;10.58;45.50;100836.63;8446367;28;20044;-68
2022/03/17 11:10:29;;;;;;;96.50;46.95;;;;;;;10.73;45.43;100829.66;8445012;28;20047;-68
2022/03/17 11:14:31;;;;;;;93.20;43.13;;;;;;;10.83;45.11;100837.78;8463783;28;20444;-68
2022/03/17 11:18:35;;;;;;;84.90;41.65;;;;;;;10.81;44.80;100834.50;8462855;28;20495;-67
2022/03/17 11:22:39;;;;;;;78.00;39.60;;;;;;;10.68;44.91;100829.63;8462721;28;20492;-68
2022/03/17 11:26:44;;;;;;;82.95;41.67;;;;;;;10.93;44.62;100832.38;8444669;28;20180;-69
2022/03/17 11:30:47;;;;;;;133.18;50.00;;;;;;;11.11;43.87;100833.72;8463975;28;20508;-69
2022/03/17 11:34:48;;;;;;;74.07;39.08;;;;;;;11.05;43.61;100830.19;8463367;28;20510;-68
2022/03/17 11:38:56;;;;;;;74.78;36.45;;;;;;;11.12;43.15;100841.56;8427213;28;20451;-68
2022/03/17 11:43:07;;;;;;;66.88;35.55;;;;;;;11.16;42.98;100837.22;8461071;28;20055;-67
2022/03/17 11:47:10;;;;;;;71.00;35.92;;;;;;;11.16;41.65;100834.53;8462990;27;20044;-68
2022/03/17 11:51:14;;;;;;;68.10;35.38;;;;;;;11.04;42.01;100838.59;8462866;28;20039;-69
2022/03/17 11:55:37;;;;;;;64.22;32.28;;;;;;;11.32;42.17;100841.56;8463185;28;20059;-67
2022/03/17 11:59:52;;;;;;;68.50;33.97;;;;;;;11.51;41.78;100843.72;8462672;28;20043;-68
2022/03/17 12:04:04;;;;;;;67.88;32.97;;;;;;;11.32;41.70;100851.56;8454415;28;20478;-68
2022/03/17 12:08:05;;;;;;;64.00;32.38;;;;;;;11.28;40.54;100845.91;8451378;28;20384;-69
2022/03/17 12:12:20;;;;;;;60.58;31.65;;;;;;;11.29;41.13;100842.13;8459974;28;20077;-68
2022/03/17 12:16:39;;;;;;;65.07;33.70;;;;;;;11.31;41.58;100839.97;8449499;28;20051;-68
2022/03/17 12:20:47;;;;;;;60.50;31.75;;;;;;;11.36;40.71;100861.59;8448201;28;20047;-68
2022/03/17 12:25:02;;;;;;;54.28;30.25;;;;;;;11.24;40.23;100855.63;8472985;27;20054;-68
2022/03/17 12:29:04;;;;;;;70.55;32.95;;;;;;;11.10;40.72;100854.56;8448974;28;20234;-69
2022/03/17 12:33:06;;;;;;;61.60;31.02;;;;;;;11.15;41.48;100846.44;8461183;28;20109;-69
2022/03/17 12:37:08;;;;;;;60.92;30.17;;;;;;;11.10;41.65;100843.75;8461454;28;20099;-68
2022/03/17 12:41:13;;;;;;;61.25;28.77;;;;;;;11.01;41.94;100829.13;8459414;28;20085;-68
2022/03/17 12:45:22;;;;;;;52.35;25.95;;;;;;;11.02;41.90;100836.97;8461200;28;20047;-68
2022/03/17 12:49:23;;;;;;;53.40;25.60;;;;;;;10.80;42.07;100838.28;8461289;28;20067;-68
2022/03/17 12:53:26;;;;;;;51.80;25.35;;;;;;;10.87;41.65;100836.97;8441822;28;20054;-68
2022/03/17 12:57:29;;;;;;;50.80;25.17;;;;;;;10.82;41.63;100828.03;8460937;28;20070;-68
2022/03/17 13:01:30;;;;;;;47.17;24.77;;;;;;;10.88;41.43;100835.06;8460942;27;20076;-67
2022/03/17 13:09:50;;;;;;;46.25;24.73;;;;;;;10.84;41.74;100839.41;8427300;28;20047;-69
2022/03/17 13:18:15;;;;;;;;;;;;;;;10.78;41.52;100824.25;8449070;27;20051;-69
2022/03/17 13:22:28;;;;;;;53.35;25.60;;;;;;;10.66;41.86;100826.38;8469469;27;19968;-68
2022/03/17 13:26:29;;;;;;;46.83;24.35;;;;;;;10.73;41.93;100832.34;8481908;27;20048;-69
2022/03/17 13:30:34;;;;;;;51.15;25.25;;;;;;;10.74;41.66;100823.13;8466932;27;20055;-68
2022/03/17 13:34:38;;;;;;;50.22;23.35;;;;;;;10.79;41.40;100817.75;8471088;28;20463;-67
2022/03/17 13:38:40;;;;;;;51.63;21.95;;;;;;;10.76;41.78;100810.19;8464408;28;20092;-68
2022/03/17 13:43:00;;;;;;;39.95;20.88;;;;;;;10.71;41.42;100807.47;8482775;28;20047;-68
2022/03/17 13:47:32;;;;;;;39.95;19.80;;;;;;;10.79;41.32;100807.75;8466809;27;20048;-68
2022/03/17 13:51:33;;;;;;;40.55;18.67;;;;;;;10.79;40.45;100798.81;8380380;28;20052;-69
2022/03/17 13:55:40;;;;;;;36.03;18.58;;;;;;;10.78;40.75;100802.63;8382721;28;20076;-67
2022/03/17 13:59:41;;;;;;;36.05;17.85;;;;;;;10.76;40.68;100804.78;8370760;28;20049;-68
2022/03/17 14:03:47;;;;;;;38.08;17.33;;;;;;;10.75;40.28;100803.16;8371621;28;20479;-68
2022/03/17 14:07:48;;;;;;;34.03;18.17;;;;;;;10.68;40.16;100802.63;8388116;28;20052;-68
2022/03/17 14:11:49;;;;;;;37.20;17.63;;;;;;;10.66;40.48;100804.75;8388213;28;20638;-68
2022/03/17 14:15:51;;;;;;;57.80;25.27;;;;;;;10.58;40.68;100798.81;8371244;28;20040;-68
2022/03/17 14:19:54;;;;;;;38.67;17.58;;;;;;;10.62;40.51;100800.97;8388095;28;20052;-68
2022/03/17 14:24:12;;;;;;;48.65;19.85;;;;;;;10.55;40.64;100804.75;8389298;28;20083;-67
2022/03/17 14:28:14;;;;;;;46.60;19.33;;;;;;;10.54;40.68;100797.72;8427729;28;20050;-69
2022/03/17 14:32:14;;;;;;;49.53;21.27;;;;;;;10.38;41.65;100809.56;8458919;28;20093;-67
2022/03/17 14:36:16;;;;;;;42.78;19.02;;;;;;;10.43;41.88;100796.06;8459275;28;20080;-67
2022/03/17 14:40:17;;;;;;;41.95;21.02;;;;;;;10.29;41.75;100811.16;8476006;28;20047;-68
2022/03/17 14:44:19;;;;;;;35.63;18.70;;;;;;;10.34;42.15;100811.19;8465162;28;20503;-67
2022/03/17 14:48:21;;;;;;;38.20;19.70;;;;;;;10.23;42.95;100817.63;8464305;28;20044;-67
2022/03/17 14:52:22;;;;;;;54.20;22.58;;;;;;;10.07;43.32;100826.69;8470296;27;20051;-68
2022/03/17 14:56:25;;;;;;;40.42;18.52;;;;;;;10.09;42.92;100827.25;8462959;28;20082;-68
2022/03/17 15:00:28;;;;;;;36.38;21.02;;;;;;;10.07;43.34;100830.22;8481581;27;20466;-68
2022/03/17 15:04:29;;;;;;;32.70;16.75;;;;;;;10.06;42.91;100827.78;8498788;27;20051;-69
2022/03/17 15:08:30;;;;;;;27.73;15.07;;;;;;;9.88;42.89;100825.53;8493653;27;20047;-69
2022/03/17 15:12:32;;;;;;;29.20;15.93;;;;;;;9.82;42.94;100840.06;8416554;27;20134;-68
2022/03/17 15:16:33;;;;;;;29.17;15.70;;;;;;;9.81;42.24;100841.16;8446574;27;20146;-68
2022/03/17 15:20:34;;;;;;;28.17;14.85;;;;;;;9.61;42.81;100837.25;8448500;27;20067;-68
2022/03/17 15:24:36;;;;;;;25.67;13.57;;;;;;;9.61;42.71;100837.25;8470968;27;20048;-67
2022/03/17 15:32:57;;;;;;;29.55;15.10;;;;;;;9.47;43.10;100846.84;8461467;27;20043;-69
2022/03/17 15:36:57;;;;;;;58.65;25.23;;;;;;;9.38;43.28;100848.41;8462102;28;20479;-68
2022/03/17 15:40:59;;;;;;;67.10;25.60;;;;;;;9.37;43.34;100857.56;8448642;27;20047;-69
2022/03/17 15:45:00;;;;;;;50.97;18.58;;;;;;;9.28;43.66;100859.13;8442486;27;20122;-70
2022/03/17 15:49:04;;;;;;;58.83;23.83;;;;;;;9.14;44.24;100863.31;8451149;28;20075;-68
2022/03/17 15:53:05;;;;;;;64.45;26.42;;;;;;;9.06;44.26;100871.88;8464579;27;20040;-69
2022/03/17 15:57:06;;;;;;;40.95;19.33;;;;;;;8.96;44.41;100871.78;8449544;28;20050;-69
2022/03/17 16:01:07;;;;;;;32.60;17.65;;;;;;;8.81;44.90;100875.94;8469910;27;20048;-68
2022/03/17 16:05:09;;;;;;;72.10;30.65;;;;;;;8.72;45.04;100877.47;8449213;28;20495;-68
2022/03/17 16:09:12;;;;;;;57.10;23.55;;;;;;;8.60;45.40;100884.88;8452165;27;20507;-68
2022/03/17 16:17:32;;;;;;;;;;;;;;;8.45;45.63;100882.00;8453301;28;20526;-66
2022/03/17 16:21:33;;;;;;;130.95;40.38;;;;;;;8.33;45.94;100878.63;8448093;28;20007;-68
2022/03/17 16:25:35;;;;;;;64.75;26.42;;;;;;;8.31;45.33;100886.94;8460941;28;20051;-69
2022/03/17 16:29:36;;;;;;;46.90;20.10;;;;;;;8.22;45.83;100888.41;8460586;27;20452;-70
2022/03/17 16:33:37;;;;;;;37.55;17.85;;;;;;;8.11;46.01;100891.22;8456670;28;20181;-70
2022/03/17 16:37:39;;;;;;;41.28;18.65;;;;;;;7.99;46.31;100894.84;8451266;27;20055;-69
2022/03/17 16:41:41;;;;;;;69.22;28.08;;;;;;;7.90;46.49;100885.56;8457198;27;20086;-69
2022/03/17 16:45:42;;;;;;;107.20;37.53;;;;;;;7.84;46.70;100886.56;8460919;28;20048;-69
2022/03/17 16:49:43;;;;;;;78.60;26.98;;;;;;;7.70;47.21;100879.09;8488856;27;20056;-68
2022/03/17 16:53:45;;;;;;;45.45;19.58;;;;;;;7.67;46.57;100885.75;8449685;28;20148;-69
2022/03/17 16:57:45;;;;;;;66.43;27.10;;;;;;;7.56;47.10;100884.00;8454888;28;20051;-68
2022/03/17 17:01:48;;;;;;;48.28;18.35;;;;;;;7.48;47.05;100881.72;8441681;28;20147;-68
2022/03/17 17:05:51;;;;;;;39.00;18.27;;;;;;;7.36;47.52;100889.03;8421362;28;20051;-69
2022/03/17 17:09:53;;;;;;;38.88;18.00;;;;;;;7.32;47.46;100893.28;8420431;28;20136;-69
2022/03/17 17:13:57;;;;;;;42.28;19.75;;;;;;;7.27;47.71;100895.88;8426499;28;20048;-70
2022/03/17 17:18:01;;;;;;;43.00;18.95;;;;;;;7.17;47.88;100907.28;8427180;28;20082;-70
2022/03/17 17:22:05;;;;;;;38.10;18.60;;;;;;;7.09;48.18;100905.78;8432333;28;20044;-71
2022/03/17 17:30:41;;;;;;;;;;;;;;;7.11;47.86;100919.81;8458192;28;20044;-70
2022/03/17 17:34:42;;;;;;;40.85;19.23;;;;;;;7.02;48.09;100926.63;8454131;28;19919;-70
2022/03/17 17:38:43;;;;;;;43.20;20.45;;;;;;;6.90;48.28;100943.84;8440314;28;20426;-69
2022/03/17 17:42:45;;;;;;;41.30;19.60;;;;;;;6.85;48.58;100947.25;8451930;28;20043;-71
2022/03/17 17:46:47;;;;;;;48.30;20.05;;;;;;;6.79;48.71;100953.56;8452871;28;20047;-69
2022/03/17 17:50:48;;;;;;;43.45;20.58;;;;;;;6.73;49.14;100944.59;8441007;28;20351;-70
2022/03/17 17:54:49;;;;;;;46.63;21.23;;;;;;;6.77;48.78;100952.97;8464666;27;20350;-70
2022/03/17 17:58:51;;;;;;;39.90;19.27;;;;;;;6.71;48.85;100945.91;8457498;28;20048;-69
2022/03/17 18:02:56;;;;;;;39.63;18.77;;;;;;;6.62;48.94;100958.06;8402162;28;20036;-70
2022/03/17 18:06:57;;;;;;;43.60;19.67;;;;;;;6.57;49.24;100960.63;8455566;28;20502;-68
2022/03/17 18:10:58;;;;;;;44.78;19.77;;;;;;;6.51;49.61;100961.56;8458076;28;20077;-71
2022/03/17 18:14:59;;;;;;;48.78;23.27;;;;;;;6.45;49.82;100967.91;8462240;28;20672;-69
2022/03/17 18:19:00;;;;;;;42.63;19.88;;;;;;;6.42;49.95;100974.56;8463285;27;20085;-70
2022/03/17 18:23:03;;;;;;;46.03;22.02;;;;;;;6.43;49.70;100980.75;8466757;27;20691;-70
2022/03/17 18:27:04;;;;;;;40.80;20.02;;;;;;;6.41;49.70;100982.84;8466618;27;20047;-70
2022/03/17 18:31:06;;;;;;;45.63;21.38;;;;;;;6.31;50.28;100994.97;8427439;28;20043;-70
2022/03/17 18:35:08;;;;;;;42.30;18.95;;;;;;;6.24;50.35;100999.66;8460527;27;20039;-71
2022/03/17 18:39:10;;;;;;;42.08;19.92;;;;;;;6.18;50.57;101000.59;8492130;27;20089;-69
2022/03/17 18:43:11;;;;;;;40.78;21.40;;;;;;;6.09;51.03;101004.66;8467103;27;20601;-69
2022/03/17 18:47:12;;;;;;;42.90;19.88;;;;;;;6.10;50.83;101013.53;8453850;27;20423;-70
2022/03/17 18:51:15;;;;;;;45.78;20.42;;;;;;;6.03;51.01;101013.63;8419113;28;20048;-69
2022/03/17 18:55:16;;;;;;;43.97;20.02;;;;;;;5.95;51.22;101022.03;8444883;28;20090;-69
2022/03/17 18:59:17;;;;;;;46.63;20.58;;;;;;;5.93;51.24;101024.13;8453545;28;20058;-71
2022/03/17 19:03:19;;;;;;;46.45;22.02;;;;;;;5.92;51.37;101027.88;8458585;27;20547;-71
2022/03/17 19:07:20;;;;;;;43.63;20.80;;;;;;;5.90;51.22;101013.88;8454334;27;20044;-69